Map

Track Data

SID SEASON NUMBER BASIN SUBBASIN NAME ISO_TIME NATURE LAT LON WMO_WIND WMO_PRES WMO_AGENCY TRACK_TYPE DIST2LAND LANDFALL IFLAG USA_AGENCY USA_ATCF_ID USA_LAT USA_LON USA_RECORD USA_STATUS USA_WIND USA_PRES USA_SSHS USA_R34_NE USA_R34_SE USA_R34_SW USA_R34_NW USA_R50_NE USA_R50_SE USA_R50_SW USA_R50_NW USA_R64_NE USA_R64_SE USA_R64_SW USA_R64_NW USA_POCI USA_ROCI USA_RMW USA_EYE TOKYO_LAT TOKYO_LON TOKYO_GRADE TOKYO_WIND TOKYO_PRES TOKYO_R50_DIR TOKYO_R50_LONG TOKYO_R50_SHORT TOKYO_R30_DIR TOKYO_R30_LONG TOKYO_R30_SHORT TOKYO_LAND CMA_LAT CMA_LON CMA_CAT CMA_WIND CMA_PRES HKO_LAT HKO_LON HKO_CAT HKO_WIND HKO_PRES NEWDELHI_LAT NEWDELHI_LON NEWDELHI_GRADE NEWDELHI_WIND NEWDELHI_PRES NEWDELHI_CI NEWDELHI_DP NEWDELHI_POCI REUNION_LAT REUNION_LON REUNION_TYPE REUNION_WIND REUNION_PRES REUNION_TNUM REUNION_CI REUNION_RMW REUNION_R34_NE REUNION_R34_SE REUNION_R34_SW REUNION_R34_NW REUNION_R50_NE REUNION_R50_SE REUNION_R50_SW REUNION_R50_NW REUNION_R64_NE REUNION_R64_SE REUNION_R64_SW REUNION_R64_NW BOM_LAT BOM_LON BOM_TYPE BOM_WIND BOM_PRES BOM_TNUM BOM_CI BOM_RMW BOM_R34_NE BOM_R34_SE BOM_R34_SW BOM_R34_NW BOM_R50_NE BOM_R50_SE BOM_R50_SW BOM_R50_NW BOM_R64_NE BOM_R64_SE BOM_R64_SW BOM_R64_NW BOM_ROCI BOM_POCI BOM_EYE BOM_POS_METHOD BOM_PRES_METHOD NADI_LAT NADI_LON NADI_CAT NADI_WIND NADI_PRES WELLINGTON_LAT WELLINGTON_LON WELLINGTON_WIND WELLINGTON_PRES DS824_LAT DS824_LON DS824_STAGE DS824_WIND DS824_PRES TD9636_LAT TD9636_LON TD9636_STAGE TD9636_WIND TD9636_PRES TD9635_LAT TD9635_LON TD9635_WIND TD9635_PRES TD9635_ROCI NEUMANN_LAT NEUMANN_LON NEUMANN_CLASS NEUMANN_WIND NEUMANN_PRES MLC_LAT MLC_LON MLC_CLASS MLC_WIND MLC_PRES USA_GUST BOM_GUST BOM_GUST_PER REUNION_GUST REUNION_GUST_PER USA_SEAHGT USA_SEARAD_NE USA_SEARAD_SE USA_SEARAD_SW USA_SEARAD_NW STORM_SPEED STORM_DIR
2020012S13126 2020 2 SI WA CLAUDIA 2020-01-11 12:00:00 NR -13.2000 126.200 PROVISIONAL 90 79 O_____________ tcvitals SI072020 -13.2000 126.200 35 1000 0 50 40 60 45 1004 180 30 11 256
2020012S13126 2020 2 SI WA CLAUDIA 2020-01-11 15:00:00 NR -13.3272 125.670 PROVISIONAL 89 86 P_____________ SI072020 -13.3272 125.670 40 997 0 50 45 60 47 1003 175 30 12 256
2020012S13126 2020 2 SI WA CLAUDIA 2020-01-11 18:00:00 NR -13.5000 125.000 PROVISIONAL 110 110 O_____________ tcvitals SI072020 -13.5000 125.000 45 994 0 50 50 60 50 1002 170 30 16 254
2020012S13126 2020 2 SI WA CLAUDIA 2020-01-11 21:00:00 NR -13.7431 124.128 PROVISIONAL 155 148 P_____________ SI072020 -13.7431 124.128 48 994 0 42 55 55 47 1003 175 22 17 253
2020012S13126 2020 2 SI WA CLAUDIA 2020-01-12 00:00:00 NR -14.0000 123.300 PROVISIONAL 210 210 O_____________ tcvitals SI072020 -14.0000 123.300 51 994 0 35 60 50 45 1004 180 14 13 250
2020012S13126 2020 2 SI WA CLAUDIA 2020-01-12 03:00:00 NR -14.1915 122.849 PROVISIONAL 232 232 P_____________ SI072020 -14.1915 122.849 51 992 0 45 85 82 57 1003 180 14 10 245
2020012S13126 2020 2 SI WA CLAUDIA 2020-01-12 06:00:00 NR -14.4000 122.400 PROVISIONAL 241 232 O_____________ tcvitals SI072020 -14.4000 122.400 51 990 0 55 110 115 70 1002 180 14 13 248
2020012S13126 2020 2 SI WA CLAUDIA 2020-01-12 09:00:00 NR -14.6775 121.632 PROVISIONAL 244 244 P_____________ SI072020 -14.6775 121.632 55 988 0 57 97 95 62 1002 175 14 18 250
2020012S13126 2020 2 SI WA CLAUDIA 2020-01-12 12:00:00 NR -15.0000 120.700 PROVISIONAL 286 286 O_____________ tcvitals SI072020 -15.0000 120.700 60 986 0 60 85 75 55 1002 170 14 20 250
2020012S13126 2020 2 SI WA CLAUDIA 2020-01-12 15:00:00 NR -15.3578 119.685 PROVISIONAL 336 336 P_____________ SI072020 -15.3578 119.685 65 982 1 62 102 80 57 1001 170 14 21 250
2020012S13126 2020 2 SI WA CLAUDIA 2020-01-12 18:00:00 NR -15.7000 118.700 PROVISIONAL 413 413 O_____________ tcvitals SI072020 -15.7000 118.700 70 978 1 65 120 85 60 1000 170 14 18 251
2020012S13126 2020 2 SI WA CLAUDIA 2020-01-12 21:00:00 NR -15.9491 117.927 PROVISIONAL 484 474 P_____________ SI072020 -15.9491 117.927 72 977 1 65 120 85 62 1001 172 14 15 251
2020012S13126 2020 2 SI WA CLAUDIA 2020-01-13 00:00:00 NR -16.2000 117.200 PROVISIONAL 479 458 O_____________ tcvitals SI072020 -16.2000 117.200 74 977 1 65 120 85 65 1002 175 14 16 249
2020012S13126 2020 2 SI WA CLAUDIA 2020-01-13 03:00:00 NR -16.5347 116.372 PROVISIONAL 459 429 P_____________ SI072020 -16.5347 116.372 77 974 1 77 115 97 82 1001 177 14 18 247
2020012S13126 2020 2 SI WA CLAUDIA 2020-01-13 06:00:00 NR -16.9000 115.500 PROVISIONAL 432 424 O_____________ tcvitals SI072020 -16.9000 115.500 80 972 1 90 110 110 100 1001 180 14 19 246
2020012S13126 2020 2 SI WA CLAUDIA 2020-01-13 09:00:00 NR -17.3101 114.578 PROVISIONAL 430 426 P_____________ SI072020 -17.3101 114.578 80 973 1 97 107 105 102 1002 192 14 19 248
2020012S13126 2020 2 SI WA CLAUDIA 2020-01-13 12:00:00 NR -17.6000 113.700 PROVISIONAL 452 452 O_____________ tcvitals SI072020 -17.6000 113.700 80 975 1 105 105 100 105 1004 205 14 15 260
2020012S13126 2020 2 SI WA CLAUDIA 2020-01-13 15:00:00 NR -17.5867 112.984 PROVISIONAL 492 492 P_____________ SI072020 -17.5867 112.984 82 973 1 102 115 105 97 1004 205 14 13 274
2020012S13126 2020 2 SI WA CLAUDIA 2020-01-13 18:00:00 NR -17.5000 112.300 PROVISIONAL 523 523 O_____________ tcvitals SI072020 -17.5000 112.300 84 971 2 100 126 110 90 1004 205 14 14 271
2020012S13126 2020 2 SI WA CLAUDIA 2020-01-13 21:00:00 NR -17.5628 111.470 PROVISIONAL 547 547 P_____________ SI072020 -17.5628 111.470 82 972 1 100 126 110 90 1004 205 14 15 263
2020012S13126 2020 2 SI WA CLAUDIA 2020-01-14 00:00:00 NR -17.7000 110.700 PROVISIONAL 582 582 O_____________ tcvitals SI072020 -17.7000 110.700 80 974 1 100 126 110 90 1004 205 14 13 256
2020012S13126 2020 2 SI WA CLAUDIA 2020-01-14 03:00:00 NR -17.8846 110.125 PROVISIONAL 605 604 P_____________ SI072020 -17.8846 110.125 77 975 1 105 120 100 90 1004 195 22 10 247
2020012S13126 2020 2 SI WA CLAUDIA 2020-01-14 06:00:00 NR -18.1000 109.700 PROVISIONAL 618 618 O_____________ tcvitals SI072020 -18.1000 109.700 74 977 1 110 115 90 90 1004 185 30 8 239
2020012S13126 2020 2 SI WA CLAUDIA 2020-01-14 09:00:00 NR -18.3072 109.385 PROVISIONAL 626 626 P_____________ SI072020 -18.3072 109.385 72 978 1 100 112 95 90 1004 182 27 7 235
2020012S13126 2020 2 SI WA CLAUDIA 2020-01-14 12:00:00 NR -18.5000 109.100 PROVISIONAL 637 637 O_____________ tcvitals SI072020 -18.5000 109.100 70 980 1 90 110 100 90 1004 180 25 7 243
2020012S13126 2020 2 SI WA CLAUDIA 2020-01-14 15:00:00 NR -18.6275 108.722 PROVISIONAL 664 664 P_____________ SI072020 -18.6275 108.722 57 987 0 75 95 92 70 1004 180 37 8 248
2020012S13126 2020 2 SI WA CLAUDIA 2020-01-14 18:00:00 NR -18.8000 108.300 PROVISIONAL 687 687 O_____________ tcvitals SI072020 -18.8000 108.300 45 995 0 60 80 85 50 1004 180 50 10 239
2020012S13126 2020 2 SI WA CLAUDIA 2020-01-14 21:00:00 NR -19.1199 107.865 PROVISIONAL 708 708 P_____________ SI072020 -19.1199 107.865 45 995 0 57 77 80 47 1004 172 50 11 231
2020012S13126 2020 2 SI WA CLAUDIA 2020-01-15 00:00:00 NR -19.5000 107.400 PROVISIONAL 730 730 O_____________ tcvitals SI072020 -19.5000 107.400 45 996 0 55 75 75 45 1005 165 50 12 231
2020012S13126 2020 2 SI WA CLAUDIA 2020-01-15 03:00:00 NR -19.8576 106.885 PROVISIONAL 756 756 P_____________ SI072020 -19.8576 106.885 45 996 0 57 77 57 47 1005 170 47 12 233
2020012S13126 2020 2 SI WA CLAUDIA 2020-01-15 06:00:00 NR -20.2000 106.400 PROVISIONAL 791 791 O_____________ tcvitals SI072020 -20.2000 106.400 45 997 0 60 80 40 50 1005 175 45 10 231
2020012S13126 2020 2 SI WA CLAUDIA 2020-01-15 09:00:00 NR -20.5072 106.042 PROVISIONAL 820 816 P_____________ SI072020 -20.5072 106.042 42 998 0 55 75 50 52 1005 167 45 9 228
2020012S13126 2020 2 SI WA CLAUDIA 2020-01-15 12:00:00 NR -20.8000 105.700 PROVISIONAL 840 840 O_____________ tcvitals SI072020 -20.8000 105.700 39 999 0 50 70 60 55 1005 160 45 9 229
2020012S13126 2020 2 SI WA CLAUDIA 2020-01-15 15:00:00 NR -21.1224 105.273 PROVISIONAL 872 872 P_____________ SI072020 -21.1224 105.273 37 1000 0 62 80 72 62 1005 160 45 10 234
2020012S13126 2020 2 SI WA CLAUDIA 2020-01-15 18:00:00 NR -21.4000 104.800 PROVISIONAL 916 916 O_____________ tcvitals SI072020 -21.4000 104.800 35 1001 0 75 90 85 70 1006 160 45 10 243
2020012S13126 2020 2 SI WA CLAUDIA 2020-01-15 21:00:00 NR -21.5803 104.305 PROVISIONAL 964 964 P_____________ SI072020 -21.5803 104.305 35 1001 0 80 1006 160 45 10 252
2020012S13126 2020 2 SI WA CLAUDIA 2020-01-16 00:00:00 NR -21.7000 103.800 PROVISIONAL 1013 O_____________ tcvitals SI072020 -21.7000 103.800 35 1002 0 70 1006 160 45 10 256

About IBTrACS Database

This database is a web-friendly format of International Best Track Archive for Climate Stewardship (IBTrACS), a global best track data archive curated by NOAA dating back to 1842.

Updated: 2021-11-26